Time;durP1;ratioP1;P1;durP2;ratioP2;P2;SDS_P1;SDS_P2;PMS_P1;PMS_P2;Temp;Humidity;BMP_temperature;BMP_pressure;BME280_temperature;BME280_humidity;BME280_pressure;Samples;Min_cycle;Max_cycle;Signal;HPM_P1;HPM_P2
2021/07/20 00:00:15;;;;;;;19.30;6.22;;;20.50;99.90;;;;;;4746908;30;20368;-81
2021/07/20 00:02:43;;;;;;;17.48;6.07;;;20.50;99.90;;;;;;4751667;30;20055;-81
2021/07/20 00:05:11;;;;;;;14.20;6.03;;;20.40;99.90;;;;;;4748443;30;20040;-81
2021/07/20 00:07:38;;;;;;;13.05;5.63;;;20.50;99.90;;;;;;4751349;30;20050;-81
2021/07/20 00:10:13;;;;;;;15.48;5.60;;;20.30;99.90;;;;;;4750332;30;20437;-82
2021/07/20 00:12:39;;;;;;;15.02;6.32;;;20.00;99.90;;;;;;4745383;30;20052;-81
2021/07/20 00:15:07;;;;;;;16.83;6.38;;;20.10;99.90;;;;;;4753331;30;20074;-81
2021/07/20 00:17:33;;;;;;;13.68;6.25;;;20.00;99.90;;;;;;4750122;30;20071;-81
2021/07/20 00:19:59;;;;;;;14.20;5.43;;;20.00;99.90;;;;;;4756047;30;20054;-81
2021/07/20 00:22:25;;;;;;;15.05;6.30;;;20.00;99.90;;;;;;4747627;30;20056;-81
2021/07/20 00:24:51;;;;;;;17.00;6.85;;;20.10;99.90;;;;;;4755814;30;20414;-81
2021/07/20 00:27:16;;;;;;;17.77;6.35;;;20.00;99.90;;;;;;4747450;30;20048;-82
2021/07/20 00:29:43;;;;;;;16.17;6.38;;;20.10;99.90;;;;;;4755345;30;20447;-81
2021/07/20 00:32:09;;;;;;;13.05;6.35;;;20.00;99.90;;;;;;4751866;30;20403;-81
2021/07/20 00:34:35;;;;;;;14.65;6.15;;;20.00;99.90;;;;;;4754493;30;20050;-81
2021/07/20 00:37:01;;;;;;;12.73;7.05;;;20.00;99.90;;;;;;4752654;30;20051;-81
2021/07/20 00:39:26;;;;;;;10.82;6.75;;;19.70;99.90;;;;;;4754300;30;20044;-81
2021/07/20 00:41:52;;;;;;;14.60;6.38;;;19.70;99.90;;;;;;4760296;30;20475;-81
2021/07/20 00:44:18;;;;;;;16.20;6.80;;;19.70;99.90;;;;;;4747392;30;20059;-81
2021/07/20 00:46:44;;;;;;;14.50;6.72;;;19.80;99.90;;;;;;4760468;30;20479;-81
2021/07/20 00:49:10;;;;;;;12.55;6.65;;;19.80;99.90;;;;;;4762293;30;20043;-81
2021/07/20 00:51:35;;;;;;;13.27;7.00;;;19.70;99.90;;;;;;4763524;30;20043;-81
2021/07/20 00:54:01;;;;;;;13.75;7.18;;;19.60;99.90;;;;;;4762472;30;20032;-81
2021/07/20 00:56:27;;;;;;;12.90;6.97;;;19.60;99.90;;;;;;4760797;30;20099;-81
2021/07/20 00:58:53;;;;;;;17.90;6.20;;;19.70;99.90;;;;;;4760665;30;20036;-81
2021/07/20 01:01:20;;;;;;;14.30;6.15;;;19.70;99.90;;;;;;4758061;30;20389;-81
2021/07/20 01:03:46;;;;;;;14.02;5.90;;;19.70;99.90;;;;;;4761313;30;20056;-81
2021/07/20 01:06:13;;;;;;;11.18;6.05;;;19.40;99.90;;;;;;4762348;30;20040;-81
2021/07/20 01:08:40;;;;;;;10.95;5.95;;;19.40;99.90;;;;;;4759915;30;20155;-82
2021/07/20 01:11:07;;;;;;;14.50;6.40;;;19.30;99.90;;;;;;4744858;30;20522;-81
2021/07/20 01:13:34;;;;;;;13.90;6.20;;;19.40;99.90;;;;;;4759423;30;20652;-81
2021/07/20 01:16:01;;;;;;;13.30;6.72;;;19.40;99.90;;;;;;4760822;30;20385;-81
2021/07/20 01:18:28;;;;;;;13.38;7.18;;;19.30;99.90;;;;;;4760339;30;20048;-81
2021/07/20 01:20:55;;;;;;;26.98;7.20;;;19.40;99.90;;;;;;4748029;30;20043;-81
2021/07/20 01:23:45;;;;;;;16.83;6.70;;;19.40;99.90;;;;;;4761363;30;20404;-81
2021/07/20 01:26:12;;;;;;;13.93;7.13;;;19.40;99.90;;;;;;4745433;30;20043;-81
2021/07/20 01:28:40;;;;;;;14.18;6.53;;;19.30;99.90;;;;;;4743318;30;20114;-81
2021/07/20 01:31:09;;;;;;;13.90;7.00;;;19.30;99.90;;;;;;4742157;30;20051;-81
2021/07/20 01:33:39;;;;;;;12.80;6.28;;;19.40;99.90;;;;;;4760177;30;20039;-81
2021/07/20 01:36:07;;;;;;;15.25;7.05;;;19.40;99.90;;;;;;4757888;30;20047;-81
2021/07/20 01:38:34;;;;;;;11.45;7.35;;;19.30;99.90;;;;;;4760593;30;20213;-81
2021/07/20 01:41:09;;;;;;;15.80;7.03;;;19.30;99.90;;;;;;4743991;30;20044;-81
2021/07/20 01:43:38;;;;;;;16.27;7.38;;;19.30;99.90;;;;;;4759985;30;20051;-81
2021/07/20 01:46:06;;;;;;;16.52;6.95;;;19.10;99.90;;;;;;4761161;30;20117;-81
2021/07/20 01:48:35;;;;;;;15.07;7.00;;;19.10;99.90;;;;;;4743673;30;20551;-81
2021/07/20 01:51:02;;;;;;;17.20;7.22;;;19.10;99.90;;;;;;4760620;30;20093;-81
2021/07/20 01:53:29;;;;;;;14.55;6.57;;;19.10;99.90;;;;;;4758870;30;20216;-81
2021/07/20 01:55:54;;;;;;;13.75;6.78;;;19.10;99.90;;;;;;4757788;30;20040;-81
2021/07/20 01:58:20;;;;;;;13.23;7.28;;;19.00;99.90;;;;;;4744092;30;20089;-81
2021/07/20 02:00:46;;;;;;;16.33;7.43;;;18.90;99.90;;;;;;4759194;30;20036;-81
2021/07/20 02:03:19;;;;;;;16.73;7.00;;;18.80;99.90;;;;;;4761165;30;20044;-81
2021/07/20 02:08:28;;;;;;;12.23;6.78;;;18.80;99.90;;;;;;4758372;30;20050;-81
2021/07/20 02:11:07;;;;;;;16.48;7.35;;;18.80;99.90;;;;;;4758534;30;20040;-80
2021/07/20 02:13:42;;;;;;;14.38;7.03;;;18.80;99.90;;;;;;4759619;30;20042;-81
2021/07/20 02:16:12;;;;;;;14.63;6.85;;;18.80;99.90;;;;;;4755192;30;20774;-81
2021/07/20 02:18:43;;;;;;;11.65;6.95;;;18.80;99.90;;;;;;4745209;30;20051;-81
2021/07/20 02:21:10;;;;;;;13.63;6.78;;;18.80;99.90;;;;;;4759463;30;20051;-81
2021/07/20 02:23:37;;;;;;;16.10;7.03;;;18.80;99.90;;;;;;4757395;30;20448;-81
2021/07/20 02:26:04;;;;;;;17.75;8.00;;;19.00;99.90;;;;;;4743575;30;20615;-80
2021/07/20 02:28:32;;;;;;;17.10;7.47;;;19.00;99.90;;;;;;4744201;30;20051;-81
2021/07/20 02:30:59;;;;;;;13.75;7.50;;;18.70;99.90;;;;;;4759109;30;20492;-81
2021/07/20 02:33:26;;;;;;;20.10;8.55;;;18.80;99.90;;;;;;4759895;30;20055;-81
2021/07/20 02:35:53;;;;;;;17.98;7.55;;;18.80;99.90;;;;;;4754667;30;20059;-81
2021/07/20 02:38:20;;;;;;;15.23;7.45;;;18.80;99.90;;;;;;4757674;30;20044;-81
2021/07/20 02:40:48;;;;;;;12.75;6.25;;;18.90;99.90;;;;;;4758207;30;20040;-81
2021/07/20 02:43:16;;;;;;;15.73;8.00;;;18.80;99.90;;;;;;4744123;30;20139;-80
2021/07/20 02:45:42;;;;;;;13.15;7.57;;;18.70;99.90;;;;;;4758881;30;20043;-81
2021/07/20 02:48:08;;;;;;;14.23;6.72;;;18.60;99.90;;;;;;4755516;30;20044;-81
2021/07/20 02:50:35;;;;;;;19.70;8.55;;;18.40;99.90;;;;;;4758965;30;20115;-81
2021/07/20 02:53:01;;;;;;;15.82;7.50;;;18.30;99.90;;;;;;4759130;30;20081;-81
2021/07/20 02:55:28;;;;;;;16.55;7.07;;;18.40;99.90;;;;;;4759541;30;20035;-80
2021/07/20 02:57:55;;;;;;;16.15;8.40;;;18.50;99.90;;;;;;4759545;30;20559;-80
2021/07/20 03:00:22;;;;;;;15.75;7.40;;;18.50;99.90;;;;;;4757755;30;20486;-81
2021/07/20 03:02:49;;;;;;;14.65;7.35;;;18.50;99.90;;;;;;4757407;30;20530;-81
2021/07/20 03:05:16;;;;;;;14.23;7.53;;;18.40;99.90;;;;;;4758967;30;20054;-81
2021/07/20 03:07:54;;;;;;;13.00;7.22;;;18.50;99.90;;;;;;4758586;30;20031;-81
2021/07/20 03:10:23;;;;;;;15.40;7.65;;;18.50;99.90;;;;;;4761299;30;20039;-80
2021/07/20 03:12:51;;;;;;;12.38;6.57;;;18.50;99.90;;;;;;4758539;30;20400;-81
2021/07/20 03:15:17;;;;;;;21.40;8.60;;;18.50;99.90;;;;;;4760420;30;20067;-81
2021/07/20 03:17:44;;;;;;;16.02;8.35;;;18.50;99.90;;;;;;4743847;30;20123;-82
2021/07/20 03:20:14;;;;;;;14.23;8.07;;;18.40;99.90;;;;;;4743642;30;20471;-82
2021/07/20 03:22:42;;;;;;;14.10;7.90;;;18.20;99.90;;;;;;4758661;30;20050;-82
2021/07/20 03:25:10;;;;;;;18.55;8.65;;;18.30;99.90;;;;;;4758358;30;20502;-82
2021/07/20 03:27:39;;;;;;;17.58;8.02;;;18.20;99.90;;;;;;4757049;30;20070;-82
2021/07/20 03:30:07;;;;;;;18.10;7.63;;;18.30;99.90;;;;;;4756884;30;20051;-82
2021/07/20 03:32:34;;;;;;;14.15;7.18;;;18.30;99.90;;;;;;4743323;30;20455;-82
2021/07/20 03:35:00;;;;;;;13.23;7.85;;;18.30;99.90;;;;;;4758431;30;20055;-81
2021/07/20 03:37:26;;;;;;;15.95;8.40;;;18.30;99.90;;;;;;4759589;30;20039;-82
2021/07/20 03:39:53;;;;;;;13.63;6.82;;;18.20;99.90;;;;;;4757552;30;20047;-81
2021/07/20 03:42:21;;;;;;;17.13;7.53;;;18.00;99.90;;;;;;4741734;30;20059;-81
2021/07/20 03:44:48;;;;;;;15.77;7.63;;;18.10;99.90;;;;;;4743149;30;20040;-82
2021/07/20 03:47:18;;;;;;;14.85;8.23;;;18.10;99.90;;;;;;4757872;30;20059;-81
2021/07/20 03:49:45;;;;;;;16.35;8.32;;;18.00;99.90;;;;;;4742486;30;20123;-81
2021/07/20 03:52:14;;;;;;;19.17;8.60;;;18.10;99.90;;;;;;4760166;30;20078;-82
2021/07/20 03:54:40;;;;;;;17.23;9.02;;;18.10;99.90;;;;;;4763797;30;20487;-81
2021/07/20 03:57:07;;;;;;;14.07;7.97;;;18.10;99.90;;;;;;4761338;30;20056;-81
2021/07/20 03:59:34;;;;;;;15.98;8.38;;;18.10;99.90;;;;;;4747328;30;20035;-81
2021/07/20 04:02:02;;;;;;;19.58;8.70;;;18.10;99.90;;;;;;4761000;30;20048;-81
2021/07/20 04:04:40;;;;;;;15.80;8.82;;;18.10;99.90;;;;;;4760298;30;20035;-81
2021/07/20 04:07:11;;;;;;;19.25;9.27;;;18.10;99.90;;;;;;4759679;30;20562;-81
2021/07/20 04:09:38;;;;;;;17.90;8.25;;;18.00;99.90;;;;;;4747004;30;20051;-80
2021/07/20 04:12:06;;;;;;;15.43;8.43;;;18.00;99.90;;;;;;4757276;30;20044;-81
2021/07/20 04:14:31;;;;;;;14.50;8.02;;;18.00;99.90;;;;;;4760672;30;20032;-81
2021/07/20 04:16:58;;;;;;;15.25;8.38;;;18.00;99.90;;;;;;4761979;30;20467;-81
2021/07/20 04:19:24;;;;;;;17.38;9.02;;;17.90;99.90;;;;;;4760282;30;20433;-80
2021/07/20 04:21:50;;;;;;;14.73;8.88;;;17.90;99.90;;;;;;4761548;30;20043;-81
2021/07/20 04:24:16;;;;;;;19.45;9.20;;;17.90;99.90;;;;;;4755304;30;20075;-81
2021/07/20 04:26:43;;;;;;;18.55;9.15;;;17.80;99.90;;;;;;4758856;30;20375;-81
2021/07/20 04:29:10;;;;;;;17.17;8.35;;;17.70;99.90;;;;;;4760064;30;20067;-80
2021/07/20 04:31:39;;;;;;;15.73;8.35;;;17.70;99.90;;;;;;4744333;30;20052;-81
2021/07/20 04:34:05;;;;;;;17.90;9.27;;;17.80;99.90;;;;;;4761434;30;20118;-81
2021/07/20 04:36:31;;;;;;;14.23;8.85;;;17.80;99.90;;;;;;4755208;30;20043;-81
2021/07/20 04:38:58;;;;;;;14.93;8.05;;;17.90;99.90;;;;;;4756395;30;20044;-81
2021/07/20 04:41:24;;;;;;;16.08;8.50;;;17.80;99.90;;;;;;4756264;30;20051;-81
2021/07/20 04:43:49;;;;;;;19.35;7.75;;;17.90;99.90;;;;;;4759364;30;20051;-81
2021/07/20 04:46:17;;;;;;;14.15;8.38;;;17.80;99.90;;;;;;4760513;30;20051;-81
2021/07/20 04:48:45;;;;;;;15.23;7.80;;;17.90;99.90;;;;;;4750781;30;20045;-81
2021/07/20 04:51:11;;;;;;;17.98;8.15;;;18.00;99.90;;;;;;4753840;30;20387;-80
2021/07/20 04:53:40;;;;;;;16.98;8.35;;;18.10;99.90;;;;;;4760544;30;20040;-81
2021/07/20 04:56:06;;;;;;;14.43;8.18;;;18.10;99.90;;;;;;4761004;30;20051;-81
2021/07/20 04:58:33;;;;;;;18.13;9.63;;;18.00;99.90;;;;;;4741998;30;20062;-81
2021/07/20 05:00:59;;;;;;;18.92;9.02;;;18.00;99.90;;;;;;4754524;30;20059;-81
2021/07/20 05:03:26;;;;;;;21.58;9.25;;;18.00;99.90;;;;;;4754308;30;20285;-83
2021/07/20 05:05:54;;;;;;;19.02;9.23;;;18.00;99.90;;;;;;4753449;30;20055;-81
2021/07/20 05:08:21;;;;;;;17.65;8.50;;;18.20;99.90;;;;;;4761563;30;20460;-81
2021/07/20 05:10:51;;;;;;;17.90;9.00;;;18.30;99.90;;;;;;4756090;30;20374;-81
2021/07/20 05:13:19;;;;;;;21.48;9.43;;;18.60;99.90;;;;;;4752199;30;20044;-81
2021/07/20 05:15:59;;;;;;;14.98;8.07;;;18.80;99.90;;;;;;4751639;30;20040;-81
2021/07/20 05:18:25;;;;;;;17.73;9.23;;;19.00;99.90;;;;;;4739351;30;20099;-81
2021/07/20 05:20:54;;;;;;;18.58;8.52;;;19.20;99.90;;;;;;4761462;30;20052;-81
2021/07/20 05:23:21;;;;;;;15.43;8.00;;;19.30;99.90;;;;;;4763236;30;20086;-81
2021/07/20 05:25:51;;;;;;;22.92;8.23;;;19.50;99.90;;;;;;4751780;30;20046;-81
2021/07/20 05:28:18;;;;;;;21.75;8.55;;;19.60;99.90;;;;;;4757497;30;20538;-81
2021/07/20 05:30:45;;;;;;;20.73;8.45;;;19.70;99.90;;;;;;4754574;30;20046;-81
2021/07/20 05:33:11;;;;;;;16.70;8.45;;;19.90;99.90;;;;;;4758238;30;20040;-81
2021/07/20 05:35:37;;;;;;;23.65;9.55;;;20.00;99.90;;;;;;4740167;30;20388;-81
2021/07/20 05:38:04;;;;;;;24.40;8.85;;;20.20;99.90;;;;;;4756250;30;20048;-82
2021/07/20 05:40:30;;;;;;;23.90;8.80;;;20.40;99.90;;;;;;4751445;30;20483;-81
2021/07/20 05:42:57;;;;;;;24.13;9.23;;;20.40;99.90;;;;;;4753192;30;20063;-81
2021/07/20 05:45:24;;;;;;;18.85;8.93;;;20.30;99.90;;;;;;4753508;30;20036;-81
2021/07/20 05:47:50;;;;;;;20.13;8.93;;;20.40;99.90;;;;;;4758967;30;20150;-81
2021/07/20 05:50:20;;;;;;;23.38;10.00;;;20.60;99.90;;;;;;4756963;30;20398;-81
2021/07/20 05:52:51;;;;;;;19.55;8.15;;;20.70;99.90;;;;;;4757598;30;20054;-81
2021/07/20 05:55:19;;;;;;;25.65;9.23;;;20.90;99.90;;;;;;4758617;30;20040;-81
2021/07/20 05:57:46;;;;;;;16.48;9.32;;;20.90;99.90;;;;;;4761431;30;20054;-81
2021/07/20 06:00:13;;;;;;;20.33;10.02;;;20.80;99.90;;;;;;4758962;30;20048;-81
2021/07/20 06:02:40;;;;;;;18.70;9.23;;;21.00;99.90;;;;;;4761181;30;20127;-81
2021/07/20 06:05:13;;;;;;;22.95;9.85;;;21.20;99.90;;;;;;4758201;30;20594;-81
2021/07/20 06:07:39;;;;;;;19.33;9.40;;;21.20;99.90;;;;;;4761331;30;20052;-81
2021/07/20 06:10:05;;;;;;;22.38;9.70;;;21.30;99.90;;;;;;4760317;30;20036;-81
2021/07/20 06:12:32;;;;;;;16.60;8.82;;;21.40;99.90;;;;;;4755784;30;20047;-80
2021/07/20 06:14:59;;;;;;;24.15;9.20;;;21.40;99.90;;;;;;4756485;30;20065;-81
2021/07/20 06:17:25;;;;;;;22.90;9.15;;;21.60;99.90;;;;;;4755439;30;20048;-81
2021/07/20 06:19:51;;;;;;;19.20;9.60;;;21.90;99.90;;;;;;4754632;30;20398;-81
2021/07/20 06:22:23;;;;;;;16.92;8.80;;;22.10;99.90;;;;;;4757406;30;20052;-81
2021/07/20 06:24:50;;;;;;;20.02;8.32;;;22.40;99.90;;;;;;4757880;30;20050;-81
2021/07/20 06:27:18;;;;;;;21.02;9.38;;;22.30;99.90;;;;;;4756355;30;20135;-80
2021/07/20 06:29:45;;;;;;;19.70;9.05;;;22.30;99.90;;;;;;4744429;30;20570;-81
2021/07/20 06:32:13;;;;;;;20.85;9.18;;;22.30;99.90;;;;;;4767290;30;20134;-82
2021/07/20 06:34:40;;;;;;;20.73;9.52;;;22.40;99.90;;;;;;4760372;30;20516;-81
2021/07/20 06:37:07;;;;;;;22.27;9.00;;;22.20;99.90;;;;;;4738388;30;20102;-81
2021/07/20 06:39:34;;;;;;;19.85;10.63;;;22.60;99.90;;;;;;4754436;30;20035;-81
2021/07/20 06:42:00;;;;;;;22.65;9.10;;;22.60;99.90;;;;;;4733151;30;20487;-81
2021/07/20 06:44:30;;;;;;;18.85;8.88;;;22.40;99.90;;;;;;4754398;30;20130;-81
2021/07/20 06:46:58;;;;;;;19.65;8.82;;;22.70;99.90;;;;;;4754798;30;20098;-81
2021/07/20 06:49:25;;;;;;;18.33;9.68;;;22.60;99.90;;;;;;4752474;30;20130;-81
2021/07/20 06:51:50;;;;;;;23.25;9.93;;;22.70;99.90;;;;;;4751816;30;20075;-81
2021/07/20 06:54:16;;;;;;;18.17;8.57;;;22.40;99.90;;;;;;4750378;30;20483;-81
2021/07/20 06:56:55;;;;;;;20.42;9.30;;;22.30;99.90;;;;;;4751418;30;20067;-81
2021/07/20 06:59:24;;;;;;;16.45;9.68;;;22.40;99.90;;;;;;4752336;30;20048;-81
2021/07/20 07:01:51;;;;;;;14.85;9.15;;;22.50;99.90;;;;;;4751371;30;20055;-81
2021/07/20 07:04:26;;;;;;;19.42;9.23;;;22.90;99.90;;;;;;4748252;30;20044;-81
2021/07/20 07:06:55;;;;;;;20.38;9.18;;;23.10;99.90;;;;;;4753647;30;20529;-82
2021/07/20 07:09:25;;;;;;;22.75;10.50;;;23.50;99.90;;;;;;4752885;30;20044;-81
2021/07/20 07:11:52;;;;;;;20.90;9.40;;;23.30;99.90;;;;;;4756545;30;20054;-81
2021/07/20 07:14:18;;;;;;;18.55;9.30;;;23.10;99.90;;;;;;4761174;30;20044;-81
2021/07/20 07:16:45;;;;;;;19.98;9.40;;;23.30;99.90;;;;;;4749966;30;20484;-81
2021/07/20 07:19:14;;;;;;;19.73;10.40;;;23.60;99.90;;;;;;4752375;30;20857;-81
2021/07/20 07:21:42;;;;;;;18.15;9.02;;;24.10;99.90;;;;;;4732858;30;20051;-82
2021/07/20 07:24:12;;;;;;;26.13;9.35;;;24.40;99.90;;;;;;4747269;30;20090;-81
2021/07/20 07:26:39;;;;;;;20.92;9.50;;;24.10;99.90;;;;;;4753634;30;20074;-81
2021/07/20 07:29:06;;;;;;;17.80;9.32;;;24.00;99.90;;;;;;4754215;30;20044;-82
2021/07/20 07:31:32;;;;;;;16.38;8.88;;;24.40;99.90;;;;;;4752427;30;20059;-83
2021/07/20 07:33:57;;;;;;;16.95;8.93;;;24.60;99.90;;;;;;4758669;30;20051;-81
2021/07/20 07:36:24;;;;;;;24.35;8.85;;;24.70;99.90;;;;;;4752515;30;20047;-81
2021/07/20 07:38:51;;;;;;;17.55;7.88;;;24.60;99.90;;;;;;4752588;30;20036;-82
2021/07/20 07:41:17;;;;;;;13.40;6.50;;;24.50;99.90;;;;;;4741790;30;20051;-81
2021/07/20 07:43:44;;;;;;;12.30;6.05;;;24.50;99.90;;;;;;4758835;30;20450;-81
2021/07/20 07:46:10;;;;;;;13.63;7.00;;;24.00;99.90;;;;;;4750911;30;20047;-81
2021/07/20 07:48:38;;;;;;;16.33;6.97;;;23.80;99.90;;;;;;4756082;30;20054;-81
2021/07/20 07:51:06;;;;;;;15.75;7.50;;;24.30;99.90;;;;;;4754322;30;20056;-82
2021/07/20 07:53:33;;;;;;;23.48;8.25;;;24.70;99.90;;;;;;4762221;30;20076;-81
2021/07/20 07:55:59;;;;;;;12.18;6.53;;;24.80;99.90;;;;;;4761317;30;20063;-82
2021/07/20 07:58:29;;;;;;;15.23;6.97;;;24.60;99.90;;;;;;4765284;30;20050;-81
2021/07/20 08:01:00;;;;;;;14.70;6.88;;;25.30;99.90;;;;;;4759927;30;20128;-81
2021/07/20 08:03:28;;;;;;;;;;;25.50;99.90;;;;;;4756535;30;20036;-80
2021/07/20 08:05:54;;;;;;;16.30;6.57;;;25.30;99.90;;;;;;4750835;30;19918;-81
2021/07/20 08:08:21;;;;;;;14.85;6.38;;;24.90;99.90;;;;;;4753388;30;20056;-81
2021/07/20 08:10:49;;;;;;;17.30;6.20;;;25.20;99.90;;;;;;4742119;30;20278;-80
2021/07/20 08:13:16;;;;;;;11.65;6.32;;;25.10;99.90;;;;;;4751900;30;20057;-81
2021/07/20 08:15:45;;;;;;;17.45;6.50;;;25.80;99.90;;;;;;4747105;30;20036;-81
2021/07/20 08:18:11;;;;;;;16.83;7.20;;;25.40;99.90;;;;;;4746943;30;20048;-81
2021/07/20 08:20:38;;;;;;;15.23;6.93;;;25.30;99.90;;;;;;4751380;30;20522;-81
2021/07/20 08:23:04;;;;;;;16.83;7.75;;;25.20;99.90;;;;;;4758258;30;20051;-80
2021/07/20 08:25:35;;;;;;;16.40;7.47;;;25.50;99.90;;;;;;4754034;30;20032;-81
2021/07/20 08:28:09;;;;;;;13.65;6.78;;;24.60;99.90;;;;;;4755022;30;20113;-81
2021/07/20 08:30:40;;;;;;;12.35;6.57;;;25.00;99.90;;;;;;4756413;30;20043;-80
2021/07/20 08:33:09;;;;;;;11.07;5.93;;;25.60;99.90;;;;;;4755621;30;20130;-81
2021/07/20 08:35:37;;;;;;;21.08;6.40;;;26.10;99.90;;;;;;4767394;30;20047;-81
2021/07/20 08:38:09;;;;;;;18.55;7.00;;;25.50;99.90;;;;;;4756759;30;20514;-81
2021/07/20 08:40:34;;;;;;;;;;;25.50;99.90;;;;;;4765427;30;20036;-81
2021/07/20 08:43:34;;;;;;;13.57;6.45;;;26.10;99.90;;;;;;4757998;30;19945;-80
2021/07/20 08:46:27;;;;;;;14.70;6.28;;;26.50;99.90;;;;;;4752957;30;20398;-80
2021/07/20 08:49:01;;;;;;;14.45;6.30;;;25.90;99.90;;;;;;4757794;30;20051;-81
2021/07/20 08:51:31;;;;;;;10.85;5.53;;;25.50;99.90;;;;;;4759375;30;20083;-80
2021/07/20 08:54:06;;;;;;;19.27;6.72;;;25.30;99.90;;;;;;4760032;30;20052;-81
2021/07/20 08:56:37;;;;;;;11.90;6.18;;;25.50;99.90;;;;;;4756885;30;20051;-80
2021/07/20 08:59:06;;;;;;;15.30;6.82;;;25.40;99.90;;;;;;4759577;30;20074;-82
2021/07/20 09:01:47;;;;;;;10.45;5.50;;;25.10;99.90;;;;;;4767622;30;20040;-81
2021/07/20 09:04:35;;;;;;;13.05;6.30;;;25.60;99.90;;;;;;4757513;30;20055;-80
2021/07/20 09:07:09;;;;;;;15.18;5.97;;;25.60;99.90;;;;;;4753037;30;20044;-81
2021/07/20 09:09:40;;;;;;;13.20;6.53;;;25.50;99.90;;;;;;4756121;30;20543;-81
2021/07/20 09:12:18;;;;;;;16.60;6.35;;;25.50;99.90;;;;;;4753841;30;20048;-82
2021/07/20 09:15:00;;;;;;;11.27;5.80;;;25.40;99.90;;;;;;4755946;30;20083;-81
2021/07/20 09:17:29;;;;;;;14.48;6.70;;;26.10;99.90;;;;;;4752191;30;20102;-82
2021/07/20 09:20:14;;;;;;;12.38;5.47;;;26.10;99.90;;;;;;4752042;30;20093;-82
2021/07/20 09:23:01;;;;;;;13.43;6.28;;;26.70;99.90;;;;;;4757604;30;20078;-81
2021/07/20 09:25:43;;;;;;;12.68;6.28;;;26.10;99.90;;;;;;4753550;30;20486;-82
2021/07/20 09:28:08;;;;;;;;;;;26.50;99.90;;;;;;4750702;30;20067;-81
2021/07/20 09:30:46;;;;;;;17.05;6.53;;;26.60;99.90;;;;;;4757147;30;19972;-82
2021/07/20 09:33:24;;;;;;;20.77;6.57;;;26.70;99.90;;;;;;4749458;30;20059;-82
2021/07/20 09:35:55;;;;;;;13.40;6.60;;;26.40;99.90;;;;;;4756635;30;20406;-82
2021/07/20 09:38:46;;;;;;;12.25;6.57;;;26.40;99.90;;;;;;4754418;30;20094;-82
2021/07/20 09:41:22;;;;;;;15.30;6.90;;;26.60;99.90;;;;;;4755260;30;20387;-82
2021/07/20 09:44:08;;;;;;;16.38;6.25;;;26.90;99.90;;;;;;4757205;30;20048;-83
2021/07/20 09:46:41;;;;;;;12.13;5.57;;;27.30;99.90;;;;;;4754940;30;20454;-82
2021/07/20 09:49:19;;;;;;;13.70;6.22;;;27.10;99.80;;;;;;4750906;30;20039;-84
2021/07/20 09:52:20;;;;;;;16.55;5.35;;;27.30;99.90;;;;;;4750676;30;20043;-82
2021/07/20 09:55:00;;;;;;;;;;;26.70;99.90;;;;;;4754477;30;20044;-82
2021/07/20 09:57:48;;;;;;;16.90;5.95;;;27.10;99.90;;;;;;4754704;30;19929;-82
2021/07/20 10:00:22;;;;;;;10.38;5.05;;;27.50;99.90;;;;;;4754386;30;20058;-82
2021/07/20 10:03:08;;;;;;;16.67;5.55;;;27.00;99.90;;;;;;4752672;30;20051;-83
2021/07/20 10:06:18;;;;;;;11.70;6.28;;;26.80;99.90;;;;;;4754011;30;20048;-82
2021/07/20 10:09:02;;;;;;;16.20;4.88;;;26.90;99.90;;;;;;4751944;30;20056;-82
2021/07/20 10:11:37;;;;;;;14.85;6.47;;;26.90;99.90;;;;;;4752877;30;20291;-81
2021/07/20 10:14:19;;;;;;;11.68;5.25;;;27.00;99.90;;;;;;4759104;30;20047;-81
2021/07/20 10:16:57;;;;;;;11.70;5.15;;;26.90;99.90;;;;;;4753229;30;20155;-82
2021/07/20 10:19:46;;;;;;;13.55;5.35;;;26.60;99.90;;;;;;4749484;30;20130;-82
2021/07/20 10:22:14;;;;;;;12.60;5.35;;;27.00;99.90;;;;;;4750419;30;20043;-82
2021/07/20 10:24:57;;;;;;;10.98;5.32;;;26.70;99.90;;;;;;4748567;30;20524;-82
2021/07/20 10:27:53;;;;;;;18.23;5.80;;;26.70;99.90;;;;;;4748610;30;20044;-82
2021/07/20 10:30:20;;;;;;;11.35;5.07;;;26.80;99.90;;;;;;4750344;30;20048;-82
2021/07/20 10:32:49;;;;;;;13.10;5.35;;;26.70;99.90;;;;;;4757731;30;20055;-82
2021/07/20 10:35:23;;;;;;;13.75;5.63;;;27.10;99.90;;;;;;4754202;30;20044;-82
2021/07/20 10:37:53;;;;;;;9.73;4.47;;;27.40;99.90;;;;;;4749683;30;20047;-81
2021/07/20 10:40:22;;;;;;;13.00;6.20;;;27.10;99.90;;;;;;4750388;30;20039;-81
2021/07/20 10:43:06;;;;;;;26.55;5.80;;;26.70;99.90;;;;;;4750027;30;20044;-82
2021/07/20 10:45:35;;;;;;;16.73;4.70;;;26.60;99.90;;;;;;4756368;30;20044;-82
2021/07/20 10:48:13;;;;;;;13.13;5.43;;;26.90;99.90;;;;;;4749084;30;20040;-81
2021/07/20 10:51:16;;;;;;;10.07;5.38;;;26.90;99.90;;;;;;4751219;30;20369;-81
2021/07/20 10:53:44;;;;;;;11.63;5.15;;;27.10;99.90;;;;;;4747810;30;20059;-82
2021/07/20 10:56:33;;;;;;;13.55;5.28;;;27.10;99.90;;;;;;4748983;30;20153;-81
2021/07/20 10:59:17;;;;;;;14.73;5.45;;;27.20;99.90;;;;;;4750672;30;20506;-82
2021/07/20 11:02:03;;;;;;;10.90;4.85;;;27.30;99.90;;;;;;4752162;30;20040;-81
2021/07/20 11:04:46;;;;;;;10.88;4.75;;;27.20;99.90;;;;;;4753426;30;20082;-82
2021/07/20 11:07:16;;;;;;;11.00;4.93;;;27.50;99.80;;;;;;4749554;30;20048;-82
2021/07/20 11:09:44;;;;;;;9.93;4.90;;;27.60;99.90;;;;;;4751828;30;20047;-81
2021/07/20 11:12:10;;;;;;;10.73;4.80;;;27.30;99.60;;;;;;4754259;30;20063;-81
2021/07/20 11:14:43;;;;;;;14.48;4.78;;;27.40;99.90;;;;;;4754386;30;20438;-81
2021/07/20 11:17:11;;;;;;;10.63;5.15;;;27.50;99.90;;;;;;4752384;30;20454;-81
2021/07/20 11:19:38;;;;;;;10.23;5.40;;;27.50;99.90;;;;;;4751146;30;20071;-81
2021/07/20 11:22:05;;;;;;;11.40;4.93;;;27.50;99.90;;;;;;4754887;30;20098;-81
2021/07/20 11:24:33;;;;;;;16.73;5.75;;;27.80;99.90;;;;;;4754234;30;20493;-81
2021/07/20 11:27:01;;;;;;;9.73;5.85;;;27.70;99.50;;;;;;4756524;30;20073;-81
2021/07/20 11:29:29;;;;;;;12.93;5.43;;;27.90;99.70;;;;;;4749717;30;20052;-82
2021/07/20 11:31:58;;;;;;;10.48;5.10;;;27.60;99.20;;;;;;4751584;30;20052;-81
2021/07/20 11:34:32;;;;;;;13.95;6.65;;;27.80;99.90;;;;;;4751414;30;20055;-81
2021/07/20 11:37:07;;;;;;;14.30;5.40;;;27.90;99.30;;;;;;4754136;30;20522;-81
2021/07/20 11:39:38;;;;;;;12.85;5.45;;;27.70;99.10;;;;;;4756585;30;20059;-81
2021/07/20 11:42:22;;;;;;;;;;;27.70;99.20;;;;;;4743906;30;20404;-81
2021/07/20 11:44:56;;;;;;;12.18;5.00;;;27.70;99.10;;;;;;4749957;30;19918;-81
2021/07/20 11:47:34;;;;;;;10.10;5.53;;;27.80;98.70;;;;;;4752955;30;20087;-81
2021/07/20 11:50:13;;;;;;;12.75;5.63;;;28.00;98.70;;;;;;4751499;30;20075;-81
2021/07/20 11:52:58;;;;;;;16.38;6.10;;;27.90;98.70;;;;;;4752217;30;20053;-82
2021/07/20 11:55:51;;;;;;;11.65;5.50;;;28.10;98.90;;;;;;4746947;30;20589;-82
2021/07/20 11:58:53;;;;;;;10.50;5.55;;;27.80;98.50;;;;;;4753231;30;20075;-81
2021/07/20 12:01:49;;;;;;;16.40;6.47;;;28.20;98.10;;;;;;4752236;30;20094;-81
2021/07/20 12:04:37;;;;;;;12.43;5.70;;;28.30;97.90;;;;;;4755255;30;20057;-82
2021/07/20 12:07:30;;;;;;;28.67;7.70;;;28.60;98.10;;;;;;4753948;30;20075;-82
2021/07/20 12:10:37;;;;;;;11.88;5.88;;;28.60;97.60;;;;;;4751990;30;20090;-82
2021/07/20 12:13:06;;;;;;;14.35;6.75;;;28.30;98.40;;;;;;4737157;30;20135;-81
2021/07/20 12:15:34;;;;;;;14.95;5.88;;;28.60;98.10;;;;;;4755049;30;20050;-82
2021/07/20 12:18:02;;;;;;;14.20;6.05;;;28.60;97.60;;;;;;4756024;30;20135;-82
2021/07/20 12:20:28;;;;;;;15.75;6.07;;;28.50;97.50;;;;;;4756770;30;20520;-82
2021/07/20 12:22:55;;;;;;;15.38;5.93;;;28.60;97.90;;;;;;4757689;30;20048;-82
2021/07/20 12:25:23;;;;;;;10.95;5.57;;;28.70;97.50;;;;;;4749613;30;20071;-82
2021/07/20 12:27:51;;;;;;;11.77;5.70;;;28.60;97.10;;;;;;4753363;30;20510;-82
2021/07/20 12:30:19;;;;;;;10.10;5.93;;;28.90;97.30;;;;;;4754318;30;20147;-82
2021/07/20 12:32:45;;;;;;;13.75;6.70;;;28.90;97.20;;;;;;4753842;30;20040;-82
2021/07/20 12:35:13;;;;;;;14.35;5.57;;;29.00;96.60;;;;;;4751689;30;20076;-82
2021/07/20 12:37:39;;;;;;;14.40;6.25;;;29.10;97.00;;;;;;4750242;30;20040;-82
2021/07/20 12:40:08;;;;;;;14.02;5.80;;;28.90;97.00;;;;;;4754064;30;20046;-82
2021/07/20 12:42:43;;;;;;;10.40;5.32;;;28.90;96.80;;;;;;4754928;30;20565;-82
2021/07/20 12:45:15;;;;;;;13.48;6.13;;;29.20;96.60;;;;;;4752308;30;20047;-82
2021/07/20 12:47:43;;;;;;;11.90;6.53;;;29.20;96.50;;;;;;4753708;30;20138;-83
2021/07/20 12:50:18;;;;;;;13.80;5.47;;;29.30;96.30;;;;;;4753796;30;20052;-82
2021/07/20 12:52:47;;;;;;;14.45;5.57;;;29.50;96.10;;;;;;4754021;30;20040;-82
2021/07/20 12:55:14;;;;;;;12.65;5.45;;;29.70;95.90;;;;;;4755558;30;20072;-82
2021/07/20 12:58:05;;;;;;;13.48;6.00;;;29.70;95.70;;;;;;4750192;30;20548;-81